Wewela, South Dakota
Current Conditions -  °F | °C
As of 2:53 PM on Thursday 20 Nov 2014 (Local Time) from KICR Reporting Station
Clear Clear  
Wind Chill: 19°   Ceiling: Unl
Heat Index: 28°   Visibility: 10mi
Dew Point: 20°   Wind: 10mph
Humidity: 72%   Direction: 140°SE
Pressure: 30.07"   Gusts: NA
Location:  43.01°N, 99.78°W
Report Text: KICR 202053Z AUTO 14009KT 10SM CLR M02/M07 A3007 RMK AO2 SLP211 T10221067 57019
Loading
Personal Weather Stations






























Interactive Weather Map New forecast layout! Learn more

10-Day Weather Forecast

Advertisements
Track Severe Weather on mobile